Latest Coastal Weather Observations for Edithburgh

IDS60701

Issued at 12:15 pm CDT Saturday 1 November 2014 (issued every 10 minutes, with the page automatically refreshed every 10 minutes)

About coastal observations | Map of coastal stations | Coastal observations for SA | Marine services | Other Formats
Station Details ID: 022046 Name: EDITHBURGH Lat: -35.11 Lon: 137.74 Height: 6.0 m
Data from the previous 72 hours. | See also: Recent months at Edithburgh
Date/Time
CDT
Temp

°C
Wind Pressure Rain
since 9am
mm
Weather Cloud Vis
km
Sea
Height
m
Swell
Dir
 
Speed
knots
Gust
knots
hPa Trend Height
m
Period
s
Dir
01/12:00pm 17.0 WSW 13 20 1017.8 - 0.0 - - - - - - -
01/11:30am 16.8 WSW 16 22 1017.5 - 0.0 - - - - - - -
01/11:00am 16.5 SW 15 22 1017.4 - 0.0 - - - - - - -
01/10:30am 16.5 SW 17 25 1017.1 - 0.0 - - - - - - -
01/10:00am 15.1 SW 17 24 1016.5 - 0.0 - - - - - - -
01/09:30am 15.4 SW 17 23 1016.0 - 0.0 - - - - - - -
01/09:00am 13.8 SW 18 29 1015.5 - 1.6 - - - - - - -
01/08:54am 14.6 SW 19 29 1015.1 - 1.6 - - - - - - -
01/08:30am 14.3 SW 19 26 1014.6 - 1.6 - - - - - - -
01/08:00am 13.6 SW 19 28 1014.0 - 1.6 - - - - - - -
01/07:30am 13.2 SW 17 28 1013.4 - 1.6 - - - - - - -
01/07:27am 13.2 SW 17 28 1013.4 - 1.6 - - - - - - -
01/07:00am 13.2 SW 17 24 1012.6 - 1.6 - - - - - - -
01/06:40am 13.5 SW 16 27 1012.0 - 1.6 - - - - - - -
01/06:30am 13.1 WSW 14 22 1011.9 - 1.6 - - - - - - -
01/06:00am 13.2 SW 18 24 1011.3 - 1.6 - - - - - - -
01/05:30am 13.1 SW 15 22 1010.7 - 1.6 - - - - - - -
01/05:00am 13.1 WSW 14 23 1010.4 - 1.6 - - - - - - -
01/04:30am 13.0 SW 15 21 1009.8 - 1.6 - - - - - - -
01/04:00am 13.1 SW 19 26 1009.4 - 1.6 - - - - - - -
01/03:30am 12.9 SW 20 31 1009.0 - 1.6 - - - - - - -
01/03:15am 13.2 SW 18 29 1008.9 - 1.6 - - - - - - -
01/03:00am 13.4 SW 18 26 1008.7 - 1.6 - - - - - - -
01/02:50am 13.6 SW 17 27 1008.5 - 1.6 - - - - - - -
01/02:30am 13.8 SW 16 24 1008.0 - 1.6 - - - - - - -
01/02:00am 13.6 WSW 15 22 1007.8 - 1.6 - - - - - - -
01/01:30am 13.8 WSW 14 19 1007.8 - 1.0 - - - - - - -
01/01:17am 13.8 WSW 20 25 1007.8 - 0.8 - - - - - - -
01/01:00am 13.7 WNW 10 14 1007.8 - 0.6 - - - - - - -
01/12:30am 14.3 WNW 7 11 1007.3 - 0.2 - - - - - - -
01/12:00am 14.5 W 8 14 1007.3 - 0.2 - - - - - - -
 
Date/Time
CDT
Temp

°C
Wind Pressure Rain
since 9am
mm
Weather Cloud Vis
km
Sea
Height
m
Swell
Dir
 
Speed
knots
Gust
knots
hPa Trend Height
m
Period
s
Dir
31/11:30pm 14.1 WSW 9 13 1007.2 - 0.2 - - - - - - -
31/11:00pm 14.3 WSW 8 13 1006.2 - 0.2 - - - - - - -
31/10:30pm 14.9 W 9 15 1006.8 - 0.2 - - - - - - -
31/10:00pm 14.8 WSW 8 12 1006.2 - 0.2 - - - - - - -
31/09:30pm 15.3 WSW 7 11 1005.7 - 0.2 - - - - - - -
31/09:00pm 15.0 WSW 7 10 1005.2 - 0.2 Recent precip. - - - - - -
31/08:30pm 15.2 WSW 10 15 1004.8 - 0.2 - - - - - - -
31/08:00pm 16.0 WSW 14 21 1004.4 - 0.0 - - - - - - -
31/07:30pm 17.0 WSW 17 25 1004.2 - 0.0 - - - - - - -
31/07:21pm 17.1 WSW 19 30 1004.1 - 0.0 - - - - - - -
31/07:00pm 17.4 WSW 17 26 1003.3 - 0.0 - - - - - - -
31/06:30pm 17.7 WSW 17 27 1001.9 - 0.0 - - - - - - -
31/06:00pm 18.0 WSW 20 29 1001.7 - 0.0 - - - - - - -
31/05:59pm 18.1 WSW 19 29 1001.7 - 0.0 - - - - - - -
31/05:30pm 18.8 WSW 22 29 1001.4 - 0.0 - - - - - - -
31/05:00pm 21.3 W 15 20 1001.0 - 0.0 - - - - - - -
31/04:30pm 23.1 WSW 13 19 1000.8 - 0.0 - - - - - - -
31/04:00pm 26.0 WSW 14 22 1000.8 - 0.0 - - - - - - -
31/03:30pm 26.0 WSW 16 22 1000.9 - 0.0 - - - - - - -
31/03:00pm 27.7 WSW 14 20 1001.0 - 0.0 - - - - - - -
31/02:30pm 26.8 WSW 13 19 1001.3 - 0.0 - - - - - - -
31/02:00pm 27.6 SW 11 15 1001.5 - 0.0 - - - - - - -
31/01:30pm 25.5 SSW 8 12 1001.4 - 0.0 - - - - - - -
31/01:00pm 25.8 SSW 10 12 1001.5 - 0.0 - - - - - - -
31/12:30pm 30.8 W 16 22 1002.0 - 0.0 - - - - - - -
31/12:08pm 30.7 WNW 16 23 1002.0 - 0.0 - - - - - - -
31/12:00pm 26.1 NE 6 10 1002.0 - 0.0 - - - - - - -
31/11:30am 24.9 NNE 8 12 1002.3 - 0.0 - - - - - - -
31/11:00am 23.2 NE 9 12 1002.6 - 0.0 - - - - - - -
31/10:30am 22.8 NNE 9 13 1002.9 - 0.0 - - - - - - -
31/10:00am 22.7 NNE 7 12 1003.2 - 0.0 - - - - - - -
31/09:30am 21.8 NNE 9 16 1003.6 - 0.0 - - - - - - -
31/09:00am 21.2 NNE 8 12 1004.0 - 0.0 - - - - - - -
31/08:30am 19.4 NNE 7 12 1004.2 - 0.0 - - - - - - -
31/08:00am 18.9 NNE 7 11 1004.5 - 0.0 - - - - - - -
31/07:30am 18.8 NNE 7 11 1004.7 - 0.0 - - - - - - -
31/07:00am 18.9 NNE 8 13 1004.8 - 0.0 - - - - - - -
31/06:30am 18.3 NNE 8 13 1004.9 - 0.0 - - - - - - -
31/06:00am 18.4 NNE 8 13 1005.3 - 0.0 - - - - - - -
31/05:30am 18.7 NE 9 14 1005.4 - 0.0 - - - - - - -
31/05:00am 18.2 NNE 6 10 1005.8 - 0.0 - - - - - - -
31/04:30am 17.8 NNE 7 10 1006.0 - 0.0 - - - - - - -
31/04:00am 16.4 ENE 6 8 1006.5 - 0.0 - - - - - - -
31/03:30am 15.4 ENE 2 4 1007.1 - 0.0 - - - - - - -
31/03:00am 16.3 NE 4 6 1007.5 - 0.0 - - - - - - -
31/02:30am 15.6 ENE 4 5 1007.9 - 0.0 - - - - - - -
31/02:00am 16.3 E 5 6 1008.1 - 0.0 - - - - - - -
31/01:30am 16.0 E 4 5 1008.6 - 0.0 - - - - - - -
31/01:00am 15.5 SE 5 5 1009.4 - 0.0 - - - - - - -
31/12:30am 15.2 E 4 4 1010.1 - 0.0 - - - - - - -
31/12:00am 15.7 SE 3 4 1010.6 - 0.0 - - - - - - -
 
Date/Time
CDT
Temp

°C
Wind Pressure Rain
since 9am
mm
Weather Cloud Vis
km
Sea
Height
m
Swell
Dir
 
Speed
knots
Gust
knots
hPa Trend Height
m
Period
s
Dir
30/11:30pm 16.2 SE 4 5 1010.9 - 0.0 - - - - - - -
30/11:00pm 15.9 SE 3 4 1011.0 - 0.0 - - - - - - -
30/10:30pm 15.0 SSE 3 4 1011.6 - 0.0 - - - - - - -
30/10:00pm 14.4 SSW 2 2 1011.9 - 0.0 - - - - - - -
30/09:30pm 14.4 SSW 2 3 1012.1 - 0.0 - - - - - - -
30/09:00pm 14.7 S 2 3 1012.0 - 0.0 - - - - - - -
30/08:30pm 15.7 ESE 2 2 1011.9 - 0.0 - - - - - - -
30/08:00pm 16.1 SE 2 2 1011.7 - 0.0 - - - - - - -
30/07:30pm 16.9 SSE 3 3 1011.4 - 0.0 - - - - - - -
30/07:00pm 17.5 SE 4 5 1011.4 - 0.0 - - - - - - -
30/06:30pm 18.4 SSE 5 7 1011.8 - 0.0 - - - - - - -
30/06:00pm 18.7 SSE 6 8 1012.1 - 0.0 - - - - - - -
30/05:30pm 18.9 S 7 10 1012.3 - 0.0 - - - - - - -
30/05:00pm 18.9 SSE 8 10 1012.5 - 0.0 - - - - - - -
30/04:30pm 18.6 SSE 7 11 1013.0 - 0.0 - - - - - - -
30/04:00pm 18.7 SE 8 10 1013.0 - 0.0 - - - - - - -
30/03:30pm 18.7 SSE 8 10 1013.1 - 0.0 - - - - - - -
30/03:00pm 19.0 SSE 9 11 1013.6 - 0.0 - - - - - - -
30/02:30pm 18.4 SSE 9 11 1014.0 - 0.0 - - - - - - -
30/02:00pm 18.3 SSE 7 10 1014.5 - 0.0 - - - - - - -
30/01:30pm 18.1 SE 8 11 1014.8 - 0.0 - - - - - - -
30/01:00pm 17.7 SE 7 10 1015.2 - 0.0 - - - - - - -
30/12:30pm 17.8 SE 8 11 1015.4 - 0.0 - - - - - - -
30/12:00pm 17.4 ESE 7 11 1015.7 - 0.0 - - - - - - -
30/11:30am 18.2 E 6 11 1016.0 - 0.0 - - - - - - -
30/11:00am 17.4 SE 6 8 1016.5 - 0.0 - - - - - - -
30/10:30am 17.7 E 4 8 1016.5 - 0.0 - - - - - - -
30/10:00am 17.9 E 5 9 1016.2 - 0.0 - - - - - - -
30/09:30am 16.6 SSE 5 9 1016.6 - 0.0 - - - - - - -
30/09:00am 17.0 SE 5 8 1016.3 - 0.0 - - - - - - -
30/08:30am 15.7 SE 5 7 1016.5 - 0.0 - - - - - - -
30/08:00am 15.6 S 4 7 1016.8 - 0.0 - - - - - - -
30/07:30am 14.5 W 2 3 1016.8 - 0.0 - - - - - - -
30/07:00am 13.4 W 3 4 1016.4 - 0.0 - - - - - - -
30/06:30am 10.8 WSW 3 4 1016.1 - 0.0 - - - - - - -
30/06:00am 9.4 S 2 3 1015.7 - 0.0 - - - - - - -
30/05:30am 13.5 NE 2 2 1015.2 - 0.0 - - - - - - -
30/05:00am 13.4 ESE 3 4 1015.5 - 0.0 - - - - - - -
30/04:30am 14.4 S 5 7 1016.3 - 0.0 - - - - - - -
30/04:00am 13.9 S 5 6 1016.1 - 0.0 - - - - - - -
30/03:30am 11.9 SSW 2 4 1015.8 - 0.0 - - - - - - -
30/03:00am 12.3 SE 1 3 1015.5 - 0.0 - - - - - - -
30/02:30am 12.9 SE 3 4 1015.7 - 0.0 - - - - - - -
30/02:00am 13.4 SE 4 5 1016.1 - 0.0 - - - - - - -
30/01:30am 14.0 SSE 5 7 1016.5 - 0.0 - - - - - - -
30/01:00am 13.9 S 7 9 1017.0 - 0.0 - - - - - - -
30/12:30am 14.3 SSE 7 8 1017.0 - 0.0 - - - - - - -
30/12:00am 14.9 S 8 10 1017.5 - 0.0 - - - - - - -
 
Date/Time
CDT
Temp

°C
Wind Pressure Rain
since 9am
mm
Weather Cloud Vis
km
Sea
Height
m
Swell
Dir
 
Speed
knots
Gust
knots
hPa Trend Height
m
Period
s
Dir
29/11:30pm 14.8 S 7 11 1017.7 - 0.0 - - - - - - -
29/11:00pm 14.8 SSE 8 10 1017.9 - 0.0 - - - - - - -
29/10:30pm 15.1 SSE 9 13 1017.7 - 0.0 - - - - - - -
29/10:00pm 15.4 SSE 8 12 1017.9 - 0.0 - - - - - - -
29/09:30pm 15.5 SSE 8 11 1017.7 - 0.0 - - - - - - -
29/09:00pm 15.3 SSE 9 13 1017.4 - 0.0 - - - - - - -
29/08:30pm 15.8 SSE 12 16 1017.2 - 0.0 - - - - - - -
29/08:00pm 15.8 S 10 14 1017.2 - 0.0 - - - - - - -
29/07:30pm 15.9 SW 8 12 1017.2 - 0.0 - - - - - - -
29/07:00pm 16.5 SW 9 11 1017.0 - 0.0 - - - - - - -
29/06:30pm 17.5 SW 8 12 1017.1 - 0.0 - - - - - - -
29/06:00pm 16.6 SSW 8 12 1016.6 - 0.0 - - - - - - -
29/05:30pm 17.3 SSW 10 13 1016.9 - 0.0 - - - - - - -
29/05:00pm 17.9 SSW 8 11 1016.8 - 0.0 - - - - - - -
29/04:30pm 18.4 S 8 11 1016.9 - 0.0 - - - - - - -
29/04:00pm 18.3 S 9 12 1017.1 - 0.0 - - - - - - -
29/03:30pm 17.9 SSE 8 12 1017.1 - 0.0 - - - - - - -
29/03:00pm 18.3 SSE 8 11 1017.3 - 0.0 - - - - - - -
29/02:30pm 19.0 SE 8 11 1017.7 - 0.0 - - - - - - -
29/02:00pm 18.5 SE 7 10 1017.9 - 0.0 - - - - - - -
29/01:30pm 18.2 SE 8 11 1018.1 - 0.0 - - - - - - -
29/01:00pm 18.6 SE 7 10 1018.5 - 0.0 - - - - - - -
29/12:30pm 18.4 SE 8 11 1018.6 - 0.0 - - - - - - -

Other Formats:

Comma delimited format used in spreadsheet applications
http://www.bom.gov.au/fwo/IDS60701/IDS60701.94809.axf

JavaScript Object Notation format (JSON) in row-major order
http://www.bom.gov.au/fwo/IDS60701/IDS60701.94809.json